Time;durP1;ratioP1;P1;durP2;ratioP2;P2;SDS_P1;SDS_P2;PMS_P1;PMS_P2;Temp;Humidity;BMP_temperature;BMP_pressure;BME280_temperature;BME280_humidity;BME280_pressure;Samples;Min_cycle;Max_cycle;Signal;HPM_P1;HPM_P2
2021/04/25 00:00:13;;;;;;;15.77;9.27;;;13.80;54.40;;;;;;5072023;28;20028;-79
2021/04/25 00:02:39;;;;;;;14.82;9.13;;;14.00;52.70;;;;;;5076029;28;20082;-79
2021/04/25 00:05:07;;;;;;;15.38;9.05;;;14.00;52.10;;;;;;5073672;28;20073;-79
2021/04/25 00:07:33;;;;;;;15.15;9.95;;;13.80;52.90;;;;;;5075829;28;20591;-79
2021/04/25 00:09:59;;;;;;;15.60;9.32;;;13.80;53.30;;;;;;5069967;28;20025;-79
2021/04/25 00:12:25;;;;;;;15.73;9.13;;;13.80;53.60;;;;;;5075538;28;20040;-80
2021/04/25 00:14:50;;;;;;;22.27;9.35;;;13.90;53.20;;;;;;5078591;28;20031;-80
2021/04/25 00:17:16;;;;;;;16.33;9.07;;;14.10;51.20;;;;;;5069559;28;20028;-79
2021/04/25 00:19:42;;;;;;;16.05;9.23;;;14.00;51.90;;;;;;5076081;28;20057;-79
2021/04/25 00:22:08;;;;;;;14.95;9.15;;;13.90;51.60;;;;;;5062889;28;20020;-79
2021/04/25 00:24:34;;;;;;;15.60;8.88;;;13.70;52.50;;;;;;5071914;28;20059;-79
2021/04/25 00:27:00;;;;;;;16.65;8.68;;;13.60;53.30;;;;;;5059553;28;20573;-79
2021/04/25 00:29:25;;;;;;;16.27;8.45;;;13.40;53.20;;;;;;5073325;28;20028;-79
2021/04/25 00:31:51;;;;;;;13.02;9.02;;;13.50;52.60;;;;;;5066075;28;20518;-79
2021/04/25 00:34:17;;;;;;;15.85;8.90;;;13.60;53.00;;;;;;5077242;28;20123;-80
2021/04/25 00:36:43;;;;;;;13.77;8.02;;;13.30;52.80;;;;;;5078278;28;20028;-80
2021/04/25 00:39:09;;;;;;;16.17;8.55;;;13.30;54.40;;;;;;5069411;28;20035;-79
2021/04/25 00:41:35;;;;;;;15.50;9.40;;;13.10;53.80;;;;;;5071063;28;20021;-79
2021/04/25 00:44:02;;;;;;;15.10;8.32;;;13.20;54.00;;;;;;5057581;28;20089;-79
2021/04/25 00:46:28;;;;;;;14.73;8.52;;;13.10;54.60;;;;;;5062886;28;20480;-79
2021/04/25 00:48:54;;;;;;;16.60;8.88;;;13.10;53.80;;;;;;5076882;28;20047;-79
2021/04/25 00:51:22;;;;;;;15.13;8.27;;;13.00;54.20;;;;;;5066276;28;20090;-79
2021/04/25 00:53:49;;;;;;;13.32;7.82;;;12.90;53.80;;;;;;5066129;28;20116;-79
2021/04/25 00:56:16;;;;;;;14.52;8.75;;;12.80;55.80;;;;;;5076419;28;20028;-79
2021/04/25 00:58:42;;;;;;;13.02;8.23;;;12.80;54.90;;;;;;5066642;28;20423;-79
2021/04/25 01:01:09;;;;;;;15.30;7.82;;;12.90;55.20;;;;;;5064778;28;20032;-79
2021/04/25 01:03:35;;;;;;;15.15;8.73;;;12.80;54.40;;;;;;5073410;28;20035;-79
2021/04/25 01:06:01;;;;;;;12.20;8.40;;;12.60;54.70;;;;;;5065849;28;20112;-79
2021/04/25 01:08:26;;;;;;;15.50;8.45;;;12.80;54.80;;;;;;5071490;28;20032;-79
2021/04/25 01:10:52;;;;;;;15.35;7.78;;;12.80;54.50;;;;;;5063246;28;20029;-79
2021/04/25 01:13:19;;;;;;;12.35;7.32;;;12.80;54.20;;;;;;5074726;28;20036;-79
2021/04/25 01:15:45;;;;;;;13.90;8.65;;;12.60;55.20;;;;;;5075685;28;20387;-79
2021/04/25 01:18:12;;;;;;;13.40;7.20;;;12.60;55.80;;;;;;5076945;28;20031;-79
2021/04/25 01:20:37;;;;;;;14.13;8.25;;;12.60;55.20;;;;;;5076480;28;20111;-80
2021/04/25 01:23:04;;;;;;;13.18;7.88;;;12.50;54.00;;;;;;5075269;28;20057;-80
2021/04/25 01:25:30;;;;;;;15.10;8.27;;;12.70;54.60;;;;;;5058290;28;20025;-80
2021/04/25 01:27:56;;;;;;;14.95;8.07;;;12.70;54.00;;;;;;5072566;28;20031;-79
2021/04/25 01:30:25;;;;;;;16.88;8.65;;;12.60;54.50;;;;;;5072024;28;20041;-79
2021/04/25 01:32:51;;;;;;;13.38;7.75;;;12.50;54.30;;;;;;5072526;28;20107;-80
2021/04/25 01:35:22;;;;;;;11.43;7.65;;;12.40;55.00;;;;;;5077238;28;20059;-80
2021/04/25 01:37:49;;;;;;;12.85;7.82;;;12.30;55.20;;;;;;5077820;28;20032;-79
2021/04/25 01:40:16;;;;;;;13.88;7.68;;;12.30;55.50;;;;;;5077655;28;20040;-80
2021/04/25 01:42:42;;;;;;;13.80;8.20;;;12.10;56.60;;;;;;5069765;28;20029;-79
2021/04/25 01:45:15;;;;;;;14.20;8.13;;;12.20;56.70;;;;;;5063602;28;20031;-79
2021/04/25 01:47:43;;;;;;;14.85;7.90;;;12.00;56.50;;;;;;5064576;28;20074;-79
2021/04/25 01:50:09;;;;;;;14.13;8.40;;;11.90;57.00;;;;;;5071473;28;20017;-78
2021/04/25 01:52:35;;;;;;;15.73;8.55;;;11.80;56.80;;;;;;5072086;28;20032;-78
2021/04/25 01:55:00;;;;;;;15.52;7.88;;;11.80;57.10;;;;;;5065702;28;20070;-78
2021/04/25 01:57:26;;;;;;;17.20;8.45;;;11.80;57.00;;;;;;5075218;28;20039;-78
2021/04/25 01:59:52;;;;;;;13.35;7.82;;;11.70;57.50;;;;;;5074684;28;20505;-79
2021/04/25 02:02:18;;;;;;;15.30;8.77;;;11.70;56.90;;;;;;5077163;28;20627;-78
2021/04/25 02:04:43;;;;;;;13.63;8.27;;;11.60;57.50;;;;;;5070660;28;20036;-79
2021/04/25 02:07:09;;;;;;;13.23;8.05;;;11.60;57.60;;;;;;5072426;28;20017;-78
2021/04/25 02:09:35;;;;;;;14.85;8.60;;;11.50;57.40;;;;;;5069401;28;20017;-79
2021/04/25 02:12:01;;;;;;;13.35;8.18;;;11.50;58.70;;;;;;5066936;28;20403;-79
2021/04/25 02:14:27;;;;;;;14.73;8.30;;;11.60;58.00;;;;;;5070843;28;20032;-79
2021/04/25 02:16:52;;;;;;;14.52;8.57;;;11.50;57.60;;;;;;5068309;28;20475;-79
2021/04/25 02:19:18;;;;;;;15.75;8.43;;;11.50;58.30;;;;;;5058758;28;20024;-78
2021/04/25 02:21:44;;;;;;;19.10;9.63;;;11.40;58.00;;;;;;5060603;28;20391;-78
2021/04/25 02:24:10;;;;;;;17.15;8.60;;;11.40;58.10;;;;;;5077591;28;20016;-78
2021/04/25 02:26:36;;;;;;;14.65;8.48;;;11.40;58.50;;;;;;5076656;28;20021;-79
2021/04/25 02:29:02;;;;;;;16.23;8.40;;;11.40;57.90;;;;;;5071495;28;20032;-79
2021/04/25 02:31:27;;;;;;;14.40;7.40;;;11.30;57.70;;;;;;5076021;28;20417;-79
2021/04/25 02:33:53;;;;;;;14.15;7.85;;;11.30;57.90;;;;;;5070651;28;20056;-79
2021/04/25 02:36:19;;;;;;;14.35;8.57;;;11.30;58.80;;;;;;5066912;28;20081;-79
2021/04/25 02:38:45;;;;;;;17.48;8.77;;;11.20;58.50;;;;;;5071658;28;20060;-79
2021/04/25 02:41:11;;;;;;;13.05;8.85;;;11.10;59.20;;;;;;5068780;28;20078;-79
2021/04/25 02:43:37;;;;;;;14.32;9.10;;;11.10;59.60;;;;;;5060205;28;20018;-79
2021/04/25 02:46:02;;;;;;;13.35;7.95;;;11.20;59.30;;;;;;5066701;28;20020;-79
2021/04/25 02:48:28;;;;;;;14.18;8.70;;;11.00;58.70;;;;;;5073281;28;20021;-79
2021/04/25 02:50:54;;;;;;;13.65;8.63;;;11.00;58.80;;;;;;5059210;28;20029;-79
2021/04/25 02:53:20;;;;;;;13.30;8.48;;;11.10;59.10;;;;;;5070681;28;20039;-79
2021/04/25 02:55:46;;;;;;;16.25;9.40;;;11.00;58.90;;;;;;5066729;28;20025;-80
2021/04/25 02:58:11;;;;;;;14.88;8.13;;;11.00;59.00;;;;;;5070143;28;20033;-79
2021/04/25 03:00:38;;;;;;;14.73;8.65;;;11.00;59.00;;;;;;5063764;28;20035;-79
2021/04/25 03:03:04;;;;;;;15.23;9.00;;;10.90;59.00;;;;;;5061305;28;20029;-79
2021/04/25 03:05:30;;;;;;;12.48;7.80;;;10.90;59.20;;;;;;5070704;28;20044;-79
2021/04/25 03:07:56;;;;;;;14.27;8.15;;;10.90;59.20;;;;;;5075268;28;20025;-79
2021/04/25 03:10:24;;;;;;;12.75;8.18;;;10.90;59.40;;;;;;5078119;28;20036;-79
2021/04/25 03:12:50;;;;;;;14.77;8.43;;;10.80;60.00;;;;;;5079675;28;20115;-79
2021/04/25 03:15:18;;;;;;;12.93;7.93;;;10.80;60.40;;;;;;5080817;28;20025;-79
2021/04/25 03:17:44;;;;;;;13.68;8.57;;;10.70;59.60;;;;;;5078987;28;20048;-79
2021/04/25 03:20:12;;;;;;;14.32;8.13;;;10.70;60.00;;;;;;5064453;28;20025;-79
2021/04/25 03:22:38;;;;;;;15.25;9.20;;;10.70;61.10;;;;;;5079292;28;20028;-79
2021/04/25 03:25:08;;;;;;;13.90;8.27;;;10.60;60.30;;;;;;5061277;28;20024;-79
2021/04/25 03:27:34;;;;;;;14.10;8.98;;;10.50;60.60;;;;;;5077945;28;20036;-79
2021/04/25 03:30:01;;;;;;;13.63;8.80;;;10.50;60.90;;;;;;5078033;28;20037;-79
2021/04/25 03:32:26;;;;;;;13.98;8.15;;;10.50;60.40;;;;;;5078191;28;20407;-78
2021/04/25 03:34:52;;;;;;;13.73;8.38;;;10.50;60.60;;;;;;5070830;28;20033;-79
2021/04/25 03:37:19;;;;;;;14.93;8.43;;;10.60;60.00;;;;;;5076504;28;20089;-79
2021/04/25 03:39:44;;;;;;;14.05;8.32;;;10.40;60.10;;;;;;5077209;28;20564;-79
2021/04/25 03:42:10;;;;;;;13.68;8.38;;;10.50;61.40;;;;;;5072948;28;20032;-79
2021/04/25 03:44:36;;;;;;;13.57;8.32;;;10.30;61.40;;;;;;5080339;28;20024;-79
2021/04/25 03:47:02;;;;;;;13.52;8.05;;;10.40;60.80;;;;;;5071141;28;20028;-79
2021/04/25 03:49:28;;;;;;;13.60;8.85;;;10.30;61.00;;;;;;5066194;28;20020;-79
2021/04/25 03:51:55;;;;;;;13.27;8.10;;;10.30;60.50;;;;;;5078817;28;20379;-79
2021/04/25 03:54:22;;;;;;;16.67;9.18;;;10.20;60.80;;;;;;5061177;28;20052;-78
2021/04/25 03:56:48;;;;;;;15.02;8.60;;;10.20;61.40;;;;;;5071278;28;20035;-78
2021/04/25 03:59:13;;;;;;;15.13;8.15;;;10.20;60.50;;;;;;5067461;28;20021;-78
2021/04/25 04:01:39;;;;;;;15.43;8.45;;;10.30;60.70;;;;;;5079366;28;20062;-79
2021/04/25 04:04:05;;;;;;;13.45;7.72;;;10.20;60.50;;;;;;5078336;28;20494;-79
2021/04/25 04:06:31;;;;;;;11.93;7.82;;;10.20;60.90;;;;;;5078802;28;20099;-79
2021/04/25 04:08:57;;;;;;;12.75;8.48;;;10.20;60.70;;;;;;5079458;28;20060;-79
2021/04/25 04:11:23;;;;;;;13.65;8.32;;;10.10;60.40;;;;;;5076403;28;20063;-79
2021/04/25 04:13:48;;;;;;;17.45;8.27;;;10.10;60.90;;;;;;5071056;28;20029;-79
2021/04/25 04:16:16;;;;;;;15.43;8.77;;;10.00;61.40;;;;;;5062707;28;20108;-79
2021/04/25 04:18:42;;;;;;;14.32;7.95;;;9.90;62.00;;;;;;5073414;28;20017;-79
2021/04/25 04:21:09;;;;;;;14.73;9.35;;;9.90;62.30;;;;;;5073863;28;20059;-79
2021/04/25 04:23:35;;;;;;;14.27;8.73;;;10.00;61.90;;;;;;5071666;28;20066;-79
2021/04/25 04:26:00;;;;;;;18.77;8.68;;;10.00;62.20;;;;;;5065009;28;20020;-79
2021/04/25 04:28:26;;;;;;;15.73;8.65;;;10.10;62.10;;;;;;5072409;28;20506;-79
2021/04/25 04:30:52;;;;;;;16.63;8.55;;;10.10;61.30;;;;;;5066813;28;20052;-79
2021/04/25 04:33:18;;;;;;;13.57;8.05;;;10.00;61.30;;;;;;5065884;28;20658;-79
2021/04/25 04:35:44;;;;;;;14.88;8.70;;;10.00;61.40;;;;;;5060888;28;20039;-79
2021/04/25 04:38:09;;;;;;;16.83;8.65;;;9.90;62.00;;;;;;5068091;28;20032;-79
2021/04/25 04:40:35;;;;;;;14.68;8.77;;;9.90;62.20;;;;;;5074545;28;20471;-79
2021/04/25 04:43:01;;;;;;;16.15;9.23;;;9.90;62.10;;;;;;5070483;28;20446;-79
2021/04/25 04:45:27;;;;;;;17.42;9.02;;;9.80;62.10;;;;;;5078107;28;20054;-79
2021/04/25 04:47:53;;;;;;;13.73;8.40;;;9.70;62.70;;;;;;5070822;28;20463;-79
2021/04/25 04:50:19;;;;;;;14.07;8.75;;;9.80;62.50;;;;;;5070161;28;20027;-80
2021/04/25 04:52:46;;;;;;;14.18;8.80;;;9.60;62.60;;;;;;5058830;28;20487;-80
2021/04/25 04:55:14;;;;;;;14.52;8.05;;;9.60;63.00;;;;;;5059882;28;20032;-80
2021/04/25 04:57:40;;;;;;;18.25;8.82;;;9.60;62.70;;;;;;5072393;28;20111;-80
2021/04/25 05:00:07;;;;;;;17.80;9.80;;;9.80;63.00;;;;;;5068454;28;20055;-79
2021/04/25 05:02:33;;;;;;;17.42;10.05;;;9.90;62.50;;;;;;5076552;28;20075;-80
2021/04/25 05:05:00;;;;;;;16.88;9.23;;;9.70;62.70;;;;;;5070380;28;20020;-80
2021/04/25 05:07:26;;;;;;;16.02;8.95;;;9.80;62.20;;;;;;5070111;28;20020;-79
2021/04/25 05:09:52;;;;;;;13.88;8.75;;;9.80;62.30;;;;;;5077117;28;20035;-79
2021/04/25 05:12:17;;;;;;;18.58;9.38;;;9.70;62.80;;;;;;5068389;28;20699;-80
2021/04/25 05:14:43;;;;;;;17.40;10.40;;;9.70;63.00;;;;;;5062518;28;20051;-80
2021/04/25 05:17:10;;;;;;;18.77;9.88;;;9.70;63.30;;;;;;5078531;28;20025;-80
2021/04/25 05:19:36;;;;;;;17.20;9.20;;;9.60;63.40;;;;;;5062360;28;20040;-79
2021/04/25 05:22:01;;;;;;;18.10;10.07;;;9.40;64.00;;;;;;5077139;28;20479;-80
2021/04/25 05:24:27;;;;;;;17.15;10.05;;;9.50;64.30;;;;;;5068361;28;20028;-79
2021/04/25 05:26:53;;;;;;;14.43;8.85;;;9.50;63.80;;;;;;5077313;28;20035;-80
2021/04/25 05:29:19;;;;;;;16.92;9.77;;;9.70;63.80;;;;;;5062838;28;20036;-80
2021/04/25 05:31:45;;;;;;;15.27;9.98;;;9.70;63.50;;;;;;5068790;28;20071;-80
2021/04/25 05:34:11;;;;;;;16.73;9.38;;;9.70;63.60;;;;;;5058803;28;20033;-79
2021/04/25 05:36:37;;;;;;;16.55;10.02;;;9.70;63.40;;;;;;5069308;28;20107;-79
2021/04/25 05:39:05;;;;;;;16.27;9.82;;;9.80;63.20;;;;;;5077493;28;20032;-78
2021/04/25 05:41:31;;;;;;;17.02;9.70;;;9.80;63.50;;;;;;5074044;28;20029;-79
2021/04/25 05:43:57;;;;;;;16.27;9.50;;;9.90;63.60;;;;;;5076062;28;20059;-79
2021/04/25 05:46:23;;;;;;;17.83;10.13;;;9.90;63.00;;;;;;5062696;28;20024;-79
2021/04/25 05:48:49;;;;;;;15.45;9.15;;;9.90;63.00;;;;;;5069977;28;20021;-79
2021/04/25 05:51:15;;;;;;;16.15;9.50;;;10.00;63.50;;;;;;5071958;28;20021;-79
2021/04/25 05:53:42;;;;;;;18.48;9.52;;;10.10;63.40;;;;;;5077420;28;20051;-79
2021/04/25 05:56:08;;;;;;;17.55;9.95;;;10.00;63.10;;;;;;5076520;28;20029;-78
2021/04/25 05:58:34;;;;;;;20.20;10.38;;;10.10;63.50;;;;;;5068652;28;20096;-79
2021/04/25 06:01:00;;;;;;;16.40;9.15;;;10.00;63.20;;;;;;5076083;28;20466;-79
2021/04/25 06:03:28;;;;;;;19.30;10.43;;;10.10;62.90;;;;;;5077501;28;20471;-79
2021/04/25 06:05:54;;;;;;;17.83;9.85;;;10.20;62.80;;;;;;5075698;28;20463;-79
2021/04/25 06:08:20;;;;;;;21.73;10.50;;;10.20;62.90;;;;;;5076380;28;20032;-79
2021/04/25 06:10:46;;;;;;;17.15;10.60;;;10.40;62.30;;;;;;5076952;28;20019;-78
2021/04/25 06:13:12;;;;;;;19.60;10.82;;;10.40;62.60;;;;;;5076213;28;20028;-78
2021/04/25 06:15:39;;;;;;;15.05;9.25;;;10.30;62.90;;;;;;5072361;28;20055;-79
2021/04/25 06:18:05;;;;;;;19.17;10.45;;;10.40;62.50;;;;;;5073128;28;20045;-79
2021/04/25 06:20:31;;;;;;;18.02;9.90;;;10.50;62.20;;;;;;5072755;28;20017;-79
2021/04/25 06:22:58;;;;;;;16.90;9.85;;;10.60;62.10;;;;;;5076492;28;20098;-79
2021/04/25 06:25:24;;;;;;;18.70;10.57;;;10.60;62.50;;;;;;5068326;28;20060;-79
2021/04/25 06:27:50;;;;;;;19.98;10.93;;;10.60;62.00;;;;;;5072497;28;20035;-79
2021/04/25 06:30:17;;;;;;;15.82;9.82;;;10.70;62.60;;;;;;5075979;28;20088;-79
2021/04/25 06:32:45;;;;;;;19.38;10.43;;;10.60;62.30;;;;;;5074444;28;20501;-79
2021/04/25 06:35:13;;;;;;;15.55;9.38;;;10.80;61.30;;;;;;5068186;28;20021;-79
2021/04/25 06:37:40;;;;;;;14.63;9.02;;;10.90;61.40;;;;;;5059626;28;20031;-79
2021/04/25 06:40:08;;;;;;;15.88;9.65;;;11.00;60.70;;;;;;5075308;28;20118;-79
2021/04/25 06:42:34;;;;;;;16.70;9.60;;;11.20;60.50;;;;;;5075357;28;20126;-79
2021/04/25 06:45:00;;;;;;;17.13;9.35;;;11.30;60.00;;;;;;5072039;28;20376;-79
2021/04/25 06:47:26;;;;;;;16.15;9.77;;;12.20;58.80;;;;;;5061323;28;20052;-79
2021/04/25 06:49:52;;;;;;;18.33;10.40;;;13.00;55.80;;;;;;5059598;28;20029;-79
2021/04/25 06:52:17;;;;;;;17.00;9.38;;;14.70;53.60;;;;;;5077143;28;20406;-79
2021/04/25 06:54:43;;;;;;;14.85;9.25;;;18.10;44.90;;;;;;5072603;28;20082;-79
2021/04/25 06:57:09;;;;;;;14.02;8.25;;;19.80;42.40;;;;;;5072831;28;20136;-79
2021/04/25 06:59:35;;;;;;;16.17;8.93;;;20.90;39.70;;;;;;5061978;28;20044;-78
2021/04/25 07:02:01;;;;;;;14.48;9.60;;;22.00;38.30;;;;;;5074588;28;20024;-78
2021/04/25 07:04:27;;;;;;;15.35;9.13;;;22.20;37.20;;;;;;5076306;28;20027;-78
2021/04/25 07:06:52;;;;;;;16.52;9.43;;;21.60;36.80;;;;;;5059494;28;20052;-78
2021/04/25 07:09:18;;;;;;;14.90;9.48;;;22.40;36.80;;;;;;5072593;28;20055;-78
2021/04/25 07:11:44;;;;;;;14.55;8.75;;;23.30;36.10;;;;;;5067651;28;20036;-77
2021/04/25 07:14:10;;;;;;;14.55;9.45;;;23.80;34.40;;;;;;5061150;28;20033;-77
2021/04/25 07:16:36;;;;;;;11.80;8.55;;;23.50;34.90;;;;;;5072401;28;20037;-79
2021/04/25 07:19:02;;;;;;;16.20;10.32;;;23.90;34.50;;;;;;5060584;28;20100;-78
2021/04/25 07:21:28;;;;;;;19.25;10.60;;;23.50;35.30;;;;;;5076430;28;20116;-78
2021/04/25 07:23:53;;;;;;;13.85;9.02;;;23.20;35.20;;;;;;5076441;28;20479;-78
2021/04/25 07:26:19;;;;;;;14.85;9.35;;;23.70;35.00;;;;;;5061067;28;20097;-78
2021/04/25 07:28:45;;;;;;;16.80;8.77;;;23.20;34.20;;;;;;5071806;28;20018;-78
2021/04/25 07:31:12;;;;;;;14.00;8.95;;;22.70;35.30;;;;;;5068137;28;20049;-77
2021/04/25 07:33:39;;;;;;;15.10;10.02;;;23.70;35.60;;;;;;5068374;28;20028;-76
2021/04/25 07:36:09;;;;;;;11.85;7.63;;;24.30;34.20;;;;;;5061264;28;20028;-72
2021/04/25 07:38:43;;;;;;;14.30;7.30;;;21.60;40.10;;;;;;5075869;28;20407;-68
2021/04/25 07:41:48;;;;;;;14.85;7.90;;;20.20;52.20;;;;;;5102943;27;20371;-67
2021/04/25 07:44:14;;;;;;;19.58;9.77;;;18.80;44.10;;;;;;5083696;28;20051;-68
2021/04/25 07:46:40;;;;;;;13.10;8.32;;;18.90;43.50;;;;;;5086063;28;20394;-62
2021/04/25 07:49:05;;;;;;;14.85;8.07;;;19.40;44.90;;;;;;5081050;28;20038;-60
2021/04/25 07:51:31;;;;;;;12.82;7.38;;;19.80;43.50;;;;;;5077566;28;20021;-58
2021/04/25 07:53:59;;;;;;;13.85;8.10;;;20.10;42.40;;;;;;5087513;28;20392;-62
2021/04/25 07:56:25;;;;;;;17.55;8.20;;;20.10;43.50;;;;;;5082656;28;20040;-64
2021/04/25 07:58:51;;;;;;;13.32;7.85;;;20.40;44.20;;;;;;5094284;28;20078;-66
2021/04/25 08:01:18;;;;;;;12.70;8.38;;;20.10;44.60;;;;;;5079356;28;20025;-64
2021/04/25 08:03:43;;;;;;;12.07;7.55;;;20.00;44.40;;;;;;5074365;28;20033;-63
2021/04/25 08:06:09;;;;;;;12.05;6.75;;;20.10;45.60;;;;;;5085933;28;20024;-64
2021/04/25 08:08:35;;;;;;;11.27;6.85;;;20.30;44.90;;;;;;5093660;28;20020;-60
2021/04/25 08:11:01;;;;;;;10.15;6.78;;;20.20;44.30;;;;;;5084235;28;20021;-61
2021/04/25 08:13:26;;;;;;;11.38;6.32;;;20.30;44.10;;;;;;5086234;28;20032;-64
2021/04/25 08:15:53;;;;;;;10.35;6.72;;;20.50;44.20;;;;;;5081374;28;20054;-64
2021/04/25 08:18:19;;;;;;;10.82;6.70;;;20.50;44.00;;;;;;5083078;28;20488;-62
2021/04/25 08:20:44;;;;;;;12.93;6.97;;;20.50;43.90;;;;;;5086254;28;20033;-63
2021/04/25 08:23:10;;;;;;;12.35;6.93;;;20.40;42.80;;;;;;5084418;28;20027;-63
2021/04/25 08:25:36;;;;;;;13.98;7.90;;;20.40;43.00;;;;;;5088076;28;20032;-64
2021/04/25 08:28:02;;;;;;;11.52;6.32;;;20.50;43.10;;;;;;5089944;28;20092;-64
2021/04/25 08:30:28;;;;;;;11.80;6.82;;;20.60;42.80;;;;;;5078770;28;20036;-69
2021/04/25 08:32:54;;;;;;;13.60;7.72;;;20.80;41.90;;;;;;5087676;28;20016;-71
2021/04/25 08:35:20;;;;;;;11.45;7.47;;;20.90;42.10;;;;;;5090953;28;20029;-69
2021/04/25 08:37:47;;;;;;;12.13;7.25;;;21.00;42.40;;;;;;5084260;28;20017;-68
2021/04/25 08:40:14;;;;;;;10.98;6.38;;;21.00;42.00;;;;;;5078821;28;20056;-70
2021/04/25 08:42:41;;;;;;;15.07;9.15;;;21.10;41.90;;;;;;5079722;28;20416;-69
2021/04/25 08:45:07;;;;;;;23.48;15.57;;;22.40;40.60;;;;;;5091481;28;20020;-69
2021/04/25 08:47:43;;;;;;;13.82;8.80;;;21.80;39.90;;;;;;5086003;28;20074;-67
2021/04/25 08:50:09;;;;;;;18.17;13.43;;;21.30;41.00;;;;;;5084360;28;20024;-66
2021/04/25 08:52:36;;;;;;;19.92;14.30;;;21.10;41.10;;;;;;5080214;28;20025;-66
2021/04/25 08:55:02;;;;;;;16.17;8.85;;;20.90;41.40;;;;;;5064555;28;20499;-67
2021/04/25 08:57:28;;;;;;;14.32;8.13;;;20.80;38.60;;;;;;5072426;28;20032;-67
2021/04/25 08:59:53;;;;;;;14.60;8.80;;;20.80;41.80;;;;;;5069028;28;20033;-67
2021/04/25 09:02:19;;;;;;;13.48;7.63;;;20.70;40.90;;;;;;5071750;28;20035;-67
2021/04/25 09:04:45;;;;;;;13.90;7.95;;;20.70;41.00;;;;;;5069464;28;20031;-67
2021/04/25 09:07:16;;;;;;;13.40;7.53;;;20.60;41.80;;;;;;5074564;28;20048;-66
2021/04/25 09:09:45;;;;;;;14.60;7.43;;;21.00;42.70;;;;;;5077620;28;20060;-66
2021/04/25 09:12:12;;;;;;;12.48;7.90;;;21.30;41.60;;;;;;5075610;28;20027;-66
2021/04/25 09:14:40;;;;;;;13.07;7.90;;;21.50;40.70;;;;;;5075688;28;20043;-66
2021/04/25 09:17:07;;;;;;;16.23;7.68;;;21.60;39.90;;;;;;5076398;28;20059;-66
2021/04/25 09:19:54;;;;;;;12.68;7.60;;;21.40;40.20;;;;;;5078524;28;20036;-66
2021/04/25 09:22:23;;;;;;;11.82;7.20;;;20.60;40.40;;;;;;5070286;28;20021;-64
2021/04/25 09:24:49;;;;;;;12.27;7.28;;;21.00;40.90;;;;;;5074620;28;20549;-67
2021/04/25 09:27:34;;;;;;;12.60;6.80;;;21.50;41.30;;;;;;5063639;28;20024;-66
2021/04/25 09:30:01;;;;;;;16.05;7.55;;;21.90;38.90;;;;;;5073987;28;20029;-68
2021/04/25 09:32:31;;;;;;;13.35;7.85;;;22.70;38.00;;;;;;5067597;28;20021;-69
2021/04/25 09:35:19;;;;;;;13.23;8.48;;;23.00;37.70;;;;;;5067289;28;20029;-69
2021/04/25 09:37:47;;;;;;;11.25;7.80;;;23.70;37.60;;;;;;5074721;28;20037;-69
2021/04/25 09:40:16;;;;;;;13.00;7.90;;;24.00;35.10;;;;;;5072635;28;20373;-69
2021/04/25 09:42:57;;;;;;;13.40;8.43;;;24.00;35.80;;;;;;5072040;28;20032;-68
2021/04/25 09:45:27;;;;;;;14.32;8.20;;;24.80;36.40;;;;;;5077077;28;20025;-69
2021/04/25 09:47:53;;;;;;;14.35;8.68;;;24.90;35.00;;;;;;5071469;28;20028;-69
2021/04/25 09:50:21;;;;;;;13.50;8.60;;;25.20;36.90;;;;;;5066345;28;20029;-69
2021/04/25 09:52:49;;;;;;;12.63;7.07;;;24.70;34.60;;;;;;5067338;28;20025;-69
2021/04/25 09:55:27;;;;;;;13.88;7.70;;;24.50;34.70;;;;;;5074601;28;20036;-69
2021/04/25 09:58:03;;;;;;;12.68;7.80;;;24.80;33.80;;;;;;5063447;28;20511;-70
2021/04/25 10:00:48;;;;;;;23.30;7.88;;;25.00;35.90;;;;;;5062868;28;20032;-68
2021/04/25 10:03:19;;;;;;;10.85;7.55;;;24.60;34.50;;;;;;5076564;28;20031;-69
2021/04/25 10:06:05;;;;;;;12.05;8.20;;;25.30;35.60;;;;;;5076312;28;20541;-70
2021/04/25 10:08:32;;;;;;;18.30;14.63;;;25.10;34.60;;;;;;5073193;28;20028;-70
2021/04/25 10:11:02;;;;;;;14.40;9.18;;;25.30;34.50;;;;;;5067001;28;20403;-70
2021/04/25 10:13:29;;;;;;;15.93;10.88;;;25.50;34.20;;;;;;5063628;28;20021;-70
2021/04/25 10:15:54;;;;;;;19.02;12.00;;;25.70;35.30;;;;;;5074848;28;20039;-70
2021/04/25 10:18:20;;;;;;;13.00;8.65;;;25.60;33.50;;;;;;5073399;28;20506;-70
2021/04/25 10:20:51;;;;;;;15.63;9.18;;;24.90;32.70;;;;;;5077569;28;20107;-70
2021/04/25 10:23:18;;;;;;;13.52;9.10;;;25.30;34.20;;;;;;5073518;28;20084;-70
2021/04/25 10:25:44;;;;;;;14.52;8.45;;;25.50;33.90;;;;;;5076832;28;20078;-70
2021/04/25 10:28:18;;;;;;;16.65;7.95;;;25.40;33.20;;;;;;5072368;28;20100;-69
2021/04/25 10:30:48;;;;;;;12.40;7.60;;;24.90;34.20;;;;;;5071855;28;20078;-69
2021/04/25 10:33:14;;;;;;;13.80;9.13;;;24.80;33.00;;;;;;5063253;28;20029;-69
2021/04/25 10:35:55;;;;;;;15.57;9.27;;;24.90;33.40;;;;;;5057889;28;20036;-70
2021/04/25 10:38:37;;;;;;;13.05;8.40;;;25.70;32.80;;;;;;5075426;28;20025;-69
2021/04/25 10:41:22;;;;;;;13.25;7.78;;;25.80;32.70;;;;;;5065910;28;20052;-70
2021/04/25 10:44:06;;;;;;;13.95;7.53;;;25.50;32.60;;;;;;5068663;28;20039;-72
2021/04/25 10:46:53;;;;;;;13.27;7.53;;;25.30;32.80;;;;;;5062220;28;20024;-71
2021/04/25 10:49:36;;;;;;;10.93;7.03;;;25.00;33.90;;;;;;5077357;28;20024;-70
2021/04/25 10:52:21;;;;;;;14.45;7.57;;;25.40;33.90;;;;;;5075041;28;20033;-70
2021/04/25 10:55:12;;;;;;;10.77;7.55;;;25.50;33.40;;;;;;5068179;28;20029;-69
2021/04/25 10:57:57;;;;;;;14.65;7.85;;;25.30;32.80;;;;;;5064726;28;20100;-69
2021/04/25 11:00:31;;;;;;;12.60;7.60;;;24.90;33.40;;;;;;5067188;28;20025;-69
2021/04/25 11:03:01;;;;;;;14.02;7.95;;;24.90;32.30;;;;;;5070778;28;20025;-68
2021/04/25 11:05:39;;;;;;;13.18;7.70;;;25.30;33.40;;;;;;5069580;28;20023;-68
2021/04/25 11:08:13;;;;;;;11.30;7.28;;;25.30;33.50;;;;;;5077330;28;20025;-68
2021/04/25 11:10:48;;;;;;;12.88;7.65;;;25.10;34.10;;;;;;5062664;28;20024;-68
2021/04/25 11:16:14;;;;;;;12.75;7.55;;;24.40;33.10;;;;;;5067817;28;20352;-68
2021/04/25 11:19:00;;;;;;;12.93;6.60;;;25.00;34.60;;;;;;5063250;28;20066;-68
2021/04/25 11:21:30;;;;;;;13.32;7.55;;;25.20;34.60;;;;;;5062197;28;20029;-68
2021/04/25 11:24:05;;;;;;;11.07;7.15;;;25.90;34.00;;;;;;5067977;28;20052;-68
2021/04/25 11:26:35;;;;;;;13.20;7.18;;;25.30;33.50;;;;;;5073375;28;20028;-68
2021/04/25 11:29:23;;;;;;;14.45;6.80;;;24.70;32.70;;;;;;5074684;28;20430;-68
2021/04/25 11:31:55;;;;;;;13.10;7.35;;;25.00;33.70;;;;;;5067656;28;20032;-70
2021/04/25 11:34:32;;;;;;;13.35;7.30;;;25.40;33.00;;;;;;5056909;28;20032;-69
2021/04/25 11:37:16;;;;;;;12.07;6.18;;;25.80;32.70;;;;;;5066238;28;20115;-67
2021/04/25 11:39:53;;;;;;;14.70;6.97;;;24.90;33.60;;;;;;5065910;28;20052;-69
2021/04/25 11:42:46;;;;;;;12.23;7.38;;;24.30;36.00;;;;;;5076861;28;20102;-67
2021/04/25 11:45:21;;;;;;;16.02;7.03;;;24.30;35.10;;;;;;5069728;28;20539;-66
2021/04/25 11:48:15;;;;;;;11.57;7.13;;;23.80;34.90;;;;;;5057217;28;20151;-65
2021/04/25 11:50:41;;;;;;;16.15;6.55;;;23.90;36.00;;;;;;5074194;28;20044;-67
2021/04/25 11:53:07;;;;;;;907.70;654.33;;;23.70;36.90;;;;;;5075186;28;20044;-66
2021/04/25 11:55:33;;;;;;;143.85;103.40;;;24.20;35.90;;;;;;5065388;28;20079;-67
2021/04/25 11:58:00;;;;;;;28.65;19.23;;;24.10;36.60;;;;;;5073087;28;20061;-68
2021/04/25 12:00:31;;;;;;;32.45;23.88;;;23.40;35.70;;;;;;5072493;28;20550;-67
2021/04/25 12:03:02;;;;;;;19.42;9.95;;;23.70;36.40;;;;;;5061476;28;20488;-66
2021/04/25 12:05:33;;;;;;;22.20;13.55;;;23.80;35.20;;;;;;5064829;28;20019;-67
2021/04/25 12:08:07;;;;;;;15.73;12.15;;;23.80;35.50;;;;;;5064553;28;20039;-69
2021/04/25 12:10:47;;;;;;;15.50;10.00;;;23.40;36.20;;;;;;5075804;28;20033;-73
2021/04/25 12:13:15;;;;;;;61.88;55.17;;;23.50;36.40;;;;;;5075189;28;20025;-79
2021/04/25 12:16:00;;;;;;;22.02;15.68;;;24.10;36.40;;;;;;5075185;28;20101;-74
2021/04/25 12:18:30;;;;;;;12.40;6.72;;;24.10;37.20;;;;;;5076755;28;20119;-76
2021/04/25 12:20:59;;;;;;;14.18;9.98;;;24.40;35.70;;;;;;5074976;28;20067;-77
2021/04/25 12:23:33;;;;;;;16.20;9.02;;;24.20;36.50;;;;;;5062872;28;20027;-73
2021/04/25 12:26:06;;;;;;;12.98;7.35;;;24.10;36.20;;;;;;5088871;28;20390;-77
2021/04/25 12:28:43;;;;;;;;;;;24.30;36.50;;;;;;5087739;28;20016;-76
2021/04/25 12:31:11;;;;;;;16.00;6.95;;;24.20;36.20;;;;;;5079689;28;19922;-77
2021/04/25 12:33:43;;;;;;;13.05;7.10;;;24.00;35.90;;;;;;5079799;28;20032;-76
2021/04/25 12:36:12;;;;;;;27.90;21.25;;;24.10;35.40;;;;;;5080532;28;20364;-77
2021/04/25 12:38:39;;;;;;;13.40;7.55;;;23.60;36.10;;;;;;5079400;28;20490;-73
2021/04/25 12:41:13;;;;;;;12.63;6.80;;;23.30;36.10;;;;;;5078254;28;20040;-75
2021/04/25 12:43:47;;;;;;;15.80;8.27;;;23.20;35.40;;;;;;5078066;28;20058;-76